createdAt,value
2023-02-03T00:00:44.327Z,2.57
2023-02-03T00:03:11.304Z,2.30
2023-02-03T00:05:38.562Z,2.50
2023-02-03T00:08:06.174Z,2.07
2023-02-03T00:10:34.117Z,1.90
2023-02-03T00:13:00.997Z,2.50
2023-02-03T00:15:27.956Z,2.10
2023-02-03T00:17:54.699Z,2.30
2023-02-03T00:20:21.554Z,2.93
2023-02-03T00:22:48.503Z,2.90
2023-02-03T00:25:15.301Z,2.77
2023-02-03T00:27:42.247Z,3.03
2023-02-03T00:30:09.396Z,3.20
2023-02-03T00:32:36.303Z,2.60
2023-02-03T00:35:03.754Z,2.53
2023-02-03T00:37:30.540Z,3.07
2023-02-03T00:39:57.278Z,2.30
2023-02-03T00:42:24.175Z,2.97
2023-02-03T00:44:50.909Z,3.27
2023-02-03T00:47:17.810Z,2.80
2023-02-03T00:49:44.535Z,2.67
2023-02-03T00:52:11.335Z,3.30
2023-02-03T00:54:38.391Z,3.87
2023-02-03T00:57:05.214Z,6.33
2023-02-03T00:59:32.106Z,4.07
2023-02-03T01:01:59.205Z,3.00
2023-02-03T01:04:26.114Z,2.87
2023-02-03T01:06:57.646Z,2.60
2023-02-03T01:09:24.650Z,3.53
2023-02-03T01:11:53.173Z,3.73
2023-02-03T01:14:19.990Z,3.20
2023-02-03T01:16:46.874Z,3.20
2023-02-03T01:19:14.955Z,2.93
2023-02-03T01:21:41.894Z,3.27
2023-02-03T01:24:09.829Z,2.90
2023-02-03T01:26:38.941Z,3.00
2023-02-03T01:29:05.703Z,3.60
2023-02-03T01:31:37.354Z,3.33
2023-02-03T01:34:08.282Z,3.20
2023-02-03T01:36:36.230Z,2.87
2023-02-03T01:39:03.520Z,2.93
2023-02-03T01:41:31.684Z,3.10
2023-02-03T01:43:59.320Z,2.80
2023-02-03T01:46:26.196Z,3.67
2023-02-03T01:48:54.575Z,2.97
2023-02-03T01:51:22.394Z,2.93
2023-02-03T01:53:50.486Z,3.83
2023-02-03T01:56:17.719Z,3.60
2023-02-03T01:58:46.687Z,3.40
2023-02-03T02:01:13.683Z,3.40
2023-02-03T02:03:43.045Z,4.40
2023-02-03T02:06:11.330Z,2.93
2023-02-03T02:08:41.456Z,2.73
2023-02-03T02:11:08.535Z,2.33
2023-02-03T02:13:35.799Z,2.30
2023-02-03T02:16:20.906Z,2.80
2023-02-03T02:18:56.799Z,2.77
2023-02-03T02:21:45.017Z,2.10
2023-02-03T02:24:21.056Z,3.77
2023-02-03T02:26:48.426Z,4.83
2023-02-03T02:29:27.478Z,5.90
2023-02-03T02:32:05.505Z,5.20
2023-02-03T02:34:52.812Z,4.43
2023-02-03T02:37:27.367Z,4.43
2023-02-03T02:39:58.309Z,4.57
2023-02-03T02:42:47.947Z,6.07
2023-02-03T02:45:22.706Z,5.43
2023-02-03T02:47:51.003Z,7.23
2023-02-03T02:50:21.867Z,6.67
2023-02-03T02:52:50.171Z,4.67
2023-02-03T02:55:24.796Z,4.20
2023-02-03T02:57:55.127Z,4.10
2023-02-03T03:00:22.923Z,3.80
2023-02-03T03:02:50.184Z,4.40
2023-02-03T03:05:18.245Z,3.23
2023-02-03T03:07:50.555Z,3.03
2023-02-03T03:10:25.077Z,2.70
2023-02-03T03:12:54.521Z,3.37
2023-02-03T03:15:22.945Z,2.87
2023-02-03T03:17:54.480Z,2.67
2023-02-03T03:20:25.102Z,2.27
2023-02-03T03:22:56.067Z,3.20
2023-02-03T03:25:26.253Z,3.23
2023-02-03T03:27:57.277Z,2.67
2023-02-03T03:30:27.297Z,2.70
2023-02-03T03:32:54.466Z,3.23
2023-02-03T03:35:21.230Z,3.27
2023-02-03T03:37:54.904Z,2.83
2023-02-03T03:40:29.043Z,3.30
2023-02-03T03:43:31.670Z,3.40
2023-02-03T03:46:00.452Z,3.47
2023-02-03T03:48:35.198Z,3.13
2023-02-03T03:51:10.978Z,3.53
2023-02-03T03:53:39.510Z,3.47
2023-02-03T03:56:07.745Z,3.43
2023-02-03T03:58:35.294Z,3.30
2023-02-03T04:01:04.226Z,3.57
2023-02-03T04:03:38.293Z,3.73
2023-02-03T04:06:05.447Z,3.77
2023-02-03T04:08:32.244Z,3.70
2023-02-03T04:10:59.158Z,4.07
2023-02-03T04:13:25.933Z,4.07
2023-02-03T04:15:52.780Z,4.03
2023-02-03T04:18:19.695Z,4.43
2023-02-03T04:20:46.521Z,4.37
2023-02-03T04:23:13.314Z,6.43
2023-02-03T04:25:40.092Z,5.47
2023-02-03T04:28:07.075Z,4.83
2023-02-03T04:30:33.954Z,5.07
2023-02-03T04:33:00.914Z,5.57
2023-02-03T04:35:27.767Z,5.30
2023-02-03T04:37:54.566Z,5.20
2023-02-03T04:40:21.424Z,5.10
2023-02-03T04:42:48.182Z,5.00
2023-02-03T04:45:15.018Z,4.77
2023-02-03T04:47:41.817Z,5.47
2023-02-03T04:50:09.055Z,5.63
2023-02-03T04:52:35.946Z,5.30
2023-02-03T04:55:04.220Z,5.53
2023-02-03T04:57:31.299Z,5.47
2023-02-03T04:59:58.054Z,5.23
2023-02-03T05:02:24.807Z,4.77
2023-02-03T05:04:51.660Z,5.17
2023-02-03T05:07:18.439Z,5.03
2023-02-03T05:09:45.293Z,5.10
2023-02-03T05:12:12.053Z,4.63
2023-02-03T05:14:38.962Z,4.27
2023-02-03T05:17:05.716Z,4.77
2023-02-03T05:19:32.527Z,4.33
2023-02-03T05:21:59.298Z,4.80
2023-02-03T05:24:26.148Z,5.23
2023-02-03T05:26:52.882Z,5.13
2023-02-03T05:29:19.740Z,5.40
2023-02-03T05:31:46.544Z,6.40
2023-02-03T05:34:13.356Z,5.40
2023-02-03T05:36:40.177Z,6.47
2023-02-03T05:39:07.024Z,5.97
2023-02-03T05:41:52.026Z,5.43
2023-02-03T05:44:19.885Z,6.20
2023-02-03T05:46:46.666Z,5.67
2023-02-03T05:49:14.032Z,5.27
2023-02-03T05:51:41.319Z,6.03
2023-02-03T05:54:08.189Z,6.57
2023-02-03T05:56:35.239Z,6.00
2023-02-03T05:59:02.046Z,6.27
2023-02-03T06:01:28.853Z,6.10
2023-02-03T06:03:55.770Z,7.57
2023-02-03T06:06:22.808Z,7.07
2023-02-03T06:08:51.331Z,6.53
2023-02-03T06:11:18.616Z,7.13
2023-02-03T06:13:45.329Z,6.30
2023-02-03T06:16:12.242Z,6.50
2023-02-03T06:18:39.014Z,6.17
2023-02-03T06:21:05.959Z,6.67
2023-02-03T06:23:32.902Z,7.23
2023-02-03T06:26:02.820Z,6.83
2023-02-03T06:28:30.444Z,6.30
2023-02-03T06:30:57.318Z,6.27
2023-02-03T06:33:24.404Z,6.10
2023-02-03T06:35:51.162Z,6.27
2023-02-03T06:38:18.000Z,5.63
2023-02-03T06:40:46.672Z,6.70
2023-02-03T06:43:13.602Z,5.50
2023-02-03T06:45:40.352Z,6.83
2023-02-03T06:48:07.886Z,5.17
2023-02-03T06:50:34.748Z,5.67
2023-02-03T06:53:01.564Z,6.07
2023-02-03T06:55:28.387Z,4.73
2023-02-03T06:57:55.206Z,5.57
2023-02-03T07:00:22.255Z,4.40
2023-02-03T07:02:55.894Z,4.77
2023-02-03T07:05:23.651Z,4.70
2023-02-03T07:07:50.853Z,4.77
2023-02-03T07:10:17.648Z,4.77
2023-02-03T07:12:44.686Z,4.37
2023-02-03T07:15:12.216Z,5.23
2023-02-03T07:17:39.024Z,4.60
2023-02-03T07:20:06.421Z,4.83
2023-02-03T07:22:33.152Z,5.80
2023-02-03T07:24:59.973Z,4.37
2023-02-03T07:27:28.188Z,3.87
2023-02-03T07:29:55.039Z,4.27
2023-02-03T07:32:21.850Z,3.13
2023-02-03T07:34:48.665Z,3.17
2023-02-03T07:37:15.648Z,1.97
2023-02-03T07:39:43.346Z,3.73
2023-02-03T07:42:10.212Z,3.47
2023-02-03T07:44:43.455Z,4.13
2023-02-03T07:47:12.273Z,3.77
2023-02-03T07:49:39.438Z,4.17
2023-02-03T07:52:06.218Z,3.43
2023-02-03T07:54:33.065Z,3.83
2023-02-03T07:56:59.778Z,4.00
2023-02-03T07:59:26.703Z,4.03
2023-02-03T08:01:56.413Z,4.33
2023-02-03T08:04:23.356Z,4.30
2023-02-03T08:06:50.310Z,4.37
2023-02-03T08:09:17.201Z,2.60
2023-02-03T08:11:44.085Z,5.27
2023-02-03T08:14:10.810Z,4.93
2023-02-03T08:16:37.740Z,5.27
2023-02-03T08:19:04.554Z,5.20
2023-02-03T08:21:31.517Z,4.07
2023-02-03T08:23:58.378Z,4.30
2023-02-03T08:26:25.150Z,3.37
2023-02-03T08:28:51.977Z,4.10
2023-02-03T08:31:19.142Z,2.03
2023-02-03T08:36:30.159Z,3.97
2023-02-03T08:38:57.088Z,3.87
2023-02-03T08:41:23.963Z,4.43
2023-02-03T08:43:51.071Z,4.07
2023-02-03T08:46:17.932Z,5.13
2023-02-03T08:48:45.510Z,3.80
2023-02-03T08:51:15.785Z,3.30
2023-02-03T08:53:42.571Z,3.57
2023-02-03T08:56:10.950Z,3.50
2023-02-03T08:58:37.961Z,3.40
2023-02-03T09:01:11.846Z,4.00
2023-02-03T09:03:39.169Z,3.70
2023-02-03T09:06:07.109Z,3.10
2023-02-03T09:08:34.319Z,3.23
2023-02-03T09:11:01.246Z,3.80
2023-02-03T09:13:28.139Z,3.67
2023-02-03T09:15:54.901Z,4.67
2023-02-03T09:18:21.809Z,4.53
2023-02-03T09:20:48.573Z,4.13
2023-02-03T09:23:15.610Z,4.67
2023-02-03T09:25:45.925Z,4.10
2023-02-03T09:28:13.663Z,4.60
2023-02-03T09:30:40.672Z,4.47
2023-02-03T09:33:07.419Z,4.20
2023-02-03T09:35:34.316Z,5.50
2023-02-03T09:38:01.404Z,4.43
2023-02-03T09:40:31.044Z,5.03
2023-02-03T09:43:00.729Z,4.60
2023-02-03T09:45:28.977Z,5.43
2023-02-03T09:47:58.427Z,5.47
2023-02-03T09:50:27.261Z,5.67
2023-02-03T09:52:54.673Z,6.10
2023-02-03T09:55:27.504Z,6.73
2023-02-03T09:58:03.458Z,6.77
2023-02-03T10:00:36.586Z,6.40
2023-02-03T10:03:08.855Z,3.47
2023-02-03T10:05:38.634Z,2.73
2023-02-03T10:08:13.446Z,5.77
2023-02-03T10:11:12.774Z,6.83
2023-02-03T10:13:39.542Z,6.03
2023-02-03T10:16:32.514Z,5.13
2023-02-03T10:19:04.076Z,5.43
2023-02-03T10:21:39.338Z,5.20
2023-02-03T10:24:10.074Z,6.10
2023-02-03T10:26:38.293Z,6.43
2023-02-03T10:29:19.058Z,6.17
2023-02-03T10:31:47.770Z,6.47
2023-02-03T10:34:15.841Z,6.77
2023-02-03T10:36:42.694Z,6.17
2023-02-03T10:39:12.259Z,5.30
2023-02-03T10:41:39.026Z,5.60
2023-02-03T10:44:07.547Z,5.03
2023-02-03T10:46:35.599Z,5.13
2023-02-03T10:49:02.549Z,5.13
2023-02-03T10:51:35.264Z,5.83
2023-02-03T10:54:02.152Z,5.17
2023-02-03T10:56:38.912Z,4.83
2023-02-03T10:59:07.657Z,4.47
2023-02-03T11:01:42.197Z,5.10
2023-02-03T11:04:28.732Z,4.90
2023-02-03T11:07:03.305Z,4.10
2023-02-03T11:09:40.065Z,5.07
2023-02-03T11:12:14.084Z,5.27
2023-02-03T11:14:43.335Z,6.23
2023-02-03T11:17:15.662Z,5.40
2023-02-03T11:19:44.609Z,5.60
2023-02-03T11:22:11.578Z,5.87
2023-02-03T11:24:39.668Z,5.70
2023-02-03T11:27:16.961Z,6.17
2023-02-03T11:29:45.262Z,6.57
2023-02-03T11:32:14.992Z,8.37
2023-02-03T11:34:46.304Z,7.23
2023-02-03T11:37:28.378Z,9.13
2023-02-03T11:39:56.187Z,8.73
2023-02-03T11:42:23.838Z,7.57
2023-02-03T11:44:51.337Z,8.33
2023-02-03T11:47:18.888Z,8.20
2023-02-03T11:49:48.756Z,5.93
2023-02-03T11:52:21.849Z,8.93
2023-02-03T11:54:57.605Z,9.40
2023-02-03T11:57:32.209Z,10.87
2023-02-03T11:59:59.080Z,11.03
2023-02-03T12:03:01.553Z,11.07
2023-02-03T12:05:37.730Z,10.87
2023-02-03T12:08:19.613Z,12.57
2023-02-03T12:10:49.375Z,11.47
2023-02-03T12:13:18.897Z,11.40
2023-02-03T12:16:04.372Z,10.90
2023-02-03T12:18:43.525Z,12.30
2023-02-03T12:21:45.733Z,11.43
2023-02-03T12:24:19.755Z,10.97
2023-02-03T12:27:09.665Z,12.03
2023-02-03T12:29:39.734Z,12.47
2023-02-03T12:32:11.576Z,11.60
2023-02-03T12:34:52.350Z,13.57
2023-02-03T12:37:39.381Z,14.17
2023-02-03T12:40:12.656Z,12.57
2023-02-03T12:42:54.740Z,13.37
2023-02-03T12:45:32.451Z,12.07
2023-02-03T12:48:02.677Z,12.97
2023-02-03T12:50:32.460Z,11.90
2023-02-03T12:53:20.723Z,12.43
2023-02-03T12:55:51.207Z,11.93
2023-02-03T12:58:29.558Z,12.03
2023-02-03T13:01:02.720Z,11.43
2023-02-03T13:03:45.844Z,11.20
2023-02-03T13:06:35.755Z,11.80
2023-02-03T13:09:05.711Z,11.47
2023-02-03T13:11:38.965Z,11.60
2023-02-03T13:14:19.604Z,11.60
2023-02-03T13:16:53.140Z,12.43
2023-02-03T13:19:25.915Z,11.47
2023-02-03T13:21:53.219Z,10.30
2023-02-03T13:24:21.738Z,10.43
2023-02-03T13:27:07.191Z,9.40
2023-02-03T13:29:40.099Z,10.30
2023-02-03T13:32:42.083Z,10.27
2023-02-03T13:35:08.892Z,10.83
2023-02-03T13:37:54.671Z,9.80
2023-02-03T13:40:33.477Z,9.43
2023-02-03T13:43:05.841Z,8.40
2023-02-03T13:45:42.516Z,9.17
2023-02-03T13:59:52.003Z,8.40
2023-02-03T14:02:21.901Z,8.40
2023-02-03T14:04:48.950Z,8.83
2023-02-03T14:07:35.412Z,8.87
2023-02-03T14:14:36.020Z,8.53
2023-02-03T14:17:02.955Z,10.27
2023-02-03T14:19:30.309Z,9.43
2023-02-03T14:21:59.344Z,8.37
2023-02-03T14:24:39.573Z,9.17
2023-02-03T14:27:16.321Z,8.37
2023-02-03T14:29:43.564Z,7.63
2023-02-03T14:32:11.606Z,8.43
2023-02-03T14:34:45.604Z,7.60
2023-02-03T14:37:14.685Z,8.87
2023-02-03T14:39:55.527Z,8.27
2023-02-03T14:42:34.768Z,7.10
2023-02-03T14:45:13.941Z,9.27
2023-02-03T14:47:40.806Z,8.33
2023-02-03T14:50:27.815Z,7.87
2023-02-03T14:53:05.912Z,7.87
2023-02-03T14:55:42.153Z,8.93
2023-02-03T14:58:29.327Z,8.70
2023-02-03T15:00:56.768Z,9.90
2023-02-03T15:03:25.619Z,9.60
2023-02-03T15:05:54.042Z,8.50
2023-02-03T15:08:31.520Z,9.23
2023-02-03T15:10:58.308Z,7.13
2023-02-03T15:13:29.237Z,9.57
2023-02-03T15:16:00.604Z,8.47
2023-02-03T15:18:29.862Z,7.57
2023-02-03T15:20:57.151Z,8.27
2023-02-03T15:23:25.348Z,8.23
2023-02-03T15:25:59.262Z,5.20
2023-02-03T15:28:27.221Z,5.50
2023-02-03T15:31:01.469Z,10.90
2023-02-03T15:33:29.017Z,5.80
2023-02-03T15:35:58.774Z,7.83
2023-02-03T15:38:35.956Z,10.30
2023-02-03T15:41:06.747Z,5.97
2023-02-03T15:43:38.372Z,6.83
2023-02-03T15:46:13.562Z,8.47
2023-02-03T15:48:40.986Z,8.53
2023-02-03T15:51:28.754Z,5.67
2023-02-03T15:54:00.857Z,5.30
2023-02-03T15:56:49.048Z,4.20
2023-02-03T15:59:35.333Z,4.30
2023-02-03T16:02:07.334Z,3.83
2023-02-03T16:04:34.848Z,4.00
2023-02-03T16:07:02.058Z,3.93
2023-02-03T16:09:28.851Z,4.47
2023-02-03T16:12:14.517Z,7.10
2023-02-03T16:14:42.283Z,7.10
2023-02-03T16:17:24.539Z,7.07
2023-02-03T16:19:52.039Z,5.73
2023-02-03T16:22:27.313Z,5.77
2023-02-03T16:24:54.812Z,6.63
2023-02-03T16:27:28.162Z,8.30
2023-02-03T16:30:33.547Z,8.77
2023-02-03T16:33:18.831Z,7.43
2023-02-03T16:36:04.572Z,5.33
2023-02-03T16:38:50.249Z,4.50
2023-02-03T16:41:37.350Z,4.53
2023-02-03T16:44:23.178Z,3.77
2023-02-03T16:47:08.692Z,4.10
2023-02-03T16:49:54.239Z,4.47
2023-02-03T16:52:21.230Z,4.83
2023-02-03T16:54:48.802Z,6.50
2023-02-03T16:57:15.861Z,7.37
2023-02-03T16:59:42.991Z,8.03
2023-02-03T17:02:10.706Z,9.10
2023-02-03T17:04:38.056Z,5.73
2023-02-03T17:07:05.784Z,4.90
2023-02-03T17:09:35.980Z,5.00
2023-02-03T17:12:03.917Z,4.83
2023-02-03T17:14:31.676Z,6.17
2023-02-03T17:16:58.853Z,6.30
2023-02-03T17:19:25.626Z,4.67
2023-02-03T17:21:53.539Z,5.33
2023-02-03T17:24:20.438Z,4.40
2023-02-03T17:26:47.300Z,4.40
2023-02-03T17:29:14.144Z,4.17
2023-02-03T17:31:40.991Z,4.50
2023-02-03T17:34:07.802Z,4.47
2023-02-03T17:36:34.708Z,4.30
2023-02-03T17:55:26.540Z,5.93
2023-02-03T17:57:53.343Z,7.87
2023-02-03T18:00:20.237Z,9.77
2023-02-03T18:02:51.307Z,7.57
2023-02-03T18:05:18.842Z,7.03
2023-02-03T18:07:45.682Z,6.67
2023-02-03T18:10:12.662Z,5.17
2023-02-03T18:12:39.450Z,4.47
2023-02-03T18:15:06.695Z,5.97
2023-02-03T18:17:33.717Z,5.13
2023-02-03T18:20:01.497Z,6.60
2023-02-03T18:22:28.430Z,5.13
2023-02-03T18:24:55.791Z,4.60
2023-02-03T18:27:22.702Z,2.70
2023-02-03T18:29:49.626Z,2.90
2023-02-03T18:32:16.980Z,3.33
2023-02-03T18:34:44.151Z,2.53
2023-02-03T18:37:11.429Z,2.93
2023-02-03T18:39:38.289Z,2.30
2023-02-03T18:42:07.855Z,2.90
2023-02-03T18:44:34.931Z,2.37
2023-02-03T18:47:07.804Z,3.17
2023-02-03T18:49:36.901Z,4.93
2023-02-03T18:52:04.391Z,3.30
2023-02-03T18:54:31.614Z,4.50
2023-02-03T18:57:03.216Z,4.47
2023-02-03T18:59:30.272Z,2.83
2023-02-03T19:01:57.199Z,3.70
2023-02-03T19:04:24.618Z,3.13
2023-02-03T19:06:52.898Z,3.40
2023-02-03T19:09:22.887Z,3.50
2023-02-03T19:11:50.046Z,3.93
2023-02-03T19:14:16.900Z,3.60
2023-02-03T19:16:44.095Z,4.07
2023-02-03T19:19:13.092Z,6.07
2023-02-03T19:21:40.184Z,5.27
2023-02-03T19:24:07.441Z,4.77
2023-02-03T19:26:34.609Z,4.30
2023-02-03T19:29:01.479Z,5.23
2023-02-03T19:31:28.454Z,4.57
2023-02-03T19:33:58.886Z,5.60
2023-02-03T19:36:27.025Z,5.83
2023-02-03T19:38:54.207Z,7.53
2023-02-03T19:41:21.560Z,6.10
2023-02-03T19:43:52.255Z,6.27
2023-02-03T19:46:21.886Z,6.50
2023-02-03T19:48:48.891Z,6.73
2023-02-03T19:51:16.074Z,5.90
2023-02-03T19:53:43.013Z,4.77
2023-02-03T19:56:09.902Z,6.10
2023-02-03T19:58:36.881Z,5.30
2023-02-03T20:01:03.708Z,5.80
2023-02-03T20:03:30.566Z,6.30
2023-02-03T20:05:57.526Z,6.67
2023-02-03T20:08:24.391Z,5.13
2023-02-03T20:10:52.601Z,7.33
2023-02-03T20:13:19.583Z,4.77
2023-02-03T20:15:47.873Z,6.40
2023-02-03T20:18:14.924Z,6.00
2023-02-03T20:20:41.729Z,8.97
2023-02-03T20:23:08.597Z,5.10
2023-02-03T20:25:35.496Z,5.83
2023-02-03T20:28:04.158Z,6.13
2023-02-03T20:30:31.258Z,5.23
2023-02-03T20:32:58.766Z,6.70
2023-02-03T20:35:26.565Z,6.20
2023-02-03T20:37:53.914Z,7.70
2023-02-03T20:40:24.930Z,5.73
2023-02-03T20:42:53.222Z,7.73
2023-02-03T20:45:21.635Z,5.60
2023-02-03T20:47:48.640Z,6.90
2023-02-03T20:50:20.029Z,4.43
2023-02-03T20:52:47.657Z,5.17
2023-02-03T20:55:16.122Z,4.63
2023-02-03T20:57:43.144Z,4.50
2023-02-03T21:00:14.948Z,4.30
2023-02-03T21:03:01.124Z,4.67
2023-02-03T21:05:29.997Z,3.90
2023-02-03T21:07:57.405Z,3.47
2023-02-03T21:10:25.083Z,4.93
2023-02-03T21:12:52.216Z,4.47
2023-02-03T21:15:20.229Z,3.43
2023-02-03T21:17:47.183Z,4.20
2023-02-03T21:20:34.442Z,3.63
2023-02-03T21:23:01.251Z,3.60
2023-02-03T21:25:32.930Z,3.63
2023-02-03T21:28:00.984Z,4.20
2023-02-03T21:30:34.368Z,3.57
2023-02-03T21:33:06.484Z,3.40
2023-02-03T21:35:35.555Z,4.60
2023-02-03T21:38:04.118Z,3.90
2023-02-03T21:40:32.714Z,3.47
2023-02-03T21:43:01.623Z,4.07
2023-02-03T21:45:34.452Z,4.47
2023-02-03T21:48:02.232Z,3.63
2023-02-03T21:50:33.815Z,4.30
2023-02-03T21:53:00.812Z,4.60
2023-02-03T21:55:27.536Z,4.43
2023-02-03T21:57:54.800Z,3.90
2023-02-03T22:00:43.588Z,3.83
2023-02-03T22:03:19.248Z,2.83
2023-02-03T22:05:46.965Z,4.87
2023-02-03T22:08:17.194Z,3.40
2023-02-03T22:10:43.974Z,3.83
2023-02-03T22:13:12.802Z,4.27
2023-02-03T22:15:40.319Z,3.77
2023-02-03T22:18:07.322Z,4.33
2023-02-03T22:20:34.227Z,3.83
2023-02-03T22:23:01.079Z,4.23
2023-02-03T22:25:27.905Z,3.60
2023-02-03T22:27:54.725Z,3.00
2023-02-03T22:30:21.588Z,4.43
2023-02-03T22:32:48.504Z,3.40
2023-02-03T22:35:15.298Z,3.30
2023-02-03T22:37:42.141Z,3.07
2023-02-03T22:40:10.632Z,3.77
2023-02-03T22:42:37.667Z,3.50
2023-02-03T22:45:05.416Z,3.07
2023-02-03T22:47:32.860Z,2.60
2023-02-03T22:49:59.783Z,3.23
2023-02-03T22:52:26.580Z,2.90
2023-02-03T22:54:53.431Z,2.70
2023-02-03T22:57:20.397Z,2.30
2023-02-03T22:59:47.376Z,2.50
2023-02-03T23:02:14.201Z,2.03
2023-02-03T23:04:41.075Z,1.70
2023-02-03T23:07:07.921Z,2.30
2023-02-03T23:09:34.937Z,2.30
2023-02-03T23:12:02.243Z,2.10
2023-02-03T23:14:29.125Z,2.80
2023-02-03T23:16:55.875Z,2.20
2023-02-03T23:19:22.838Z,3.53
2023-02-03T23:21:49.631Z,3.33
2023-02-03T23:24:16.574Z,3.27
2023-02-03T23:26:43.574Z,3.30
2023-02-03T23:29:10.396Z,3.37
2023-02-03T23:31:37.309Z,2.60
2023-02-03T23:34:23.034Z,2.80
2023-02-03T23:36:49.864Z,2.70
2023-02-03T23:39:16.678Z,2.73
2023-02-03T23:41:43.522Z,2.37
2023-02-03T23:44:11.260Z,2.10
2023-02-03T23:46:38.136Z,2.00
2023-02-03T23:49:05.052Z,2.23
2023-02-03T23:51:31.851Z,2.37
2023-02-03T23:53:58.683Z,2.20
2023-02-03T23:56:25.506Z,2.23
2023-02-03T23:58:52.475Z,2.20
